KDRA/DRA METAR and TAF weather

Enter ICAO airport designator
Station Type Date Time Source
KDRA METAR 2019/10/16 18:53 UTC NOAA

KDRA 161853Z AUTO 13011KT 10SM CLR 27/M10 A3008 RMK AO2 SLP150 T02671100


Station Type Date Time Source
KDRA Decoded METAR 2019/10/16 18:53 UTC NOAA

DESERT ROCK AIRPORT, NV, United States (KDRA) 36-38N 116-02W 1006M
Oct 16, 2019 - 02:53 PM EDT / 2019.10.16 1853 UTC
Wind: from the SE (130 degrees) at 13 MPH (11 KT):0
Visibility: 10 mile(s):0
Sky conditions: clear
Temperature: 80.1 F (26.7 C)
Dew Point: 14.0 F (-10.0 C)
Relative Humidity: 8%
Pressure (altimeter): 30.08 in. Hg (1018 hPa)
ob: KDRA 161853Z AUTO 13011KT 10SM CLR 27/M10 A3008 RMK AO2 SLP150 T02671100
cycle: 19

Station Type Date Time Source
KDRA TAF 2011/12/07 06:36 UTC NOAA

TAF KDRA 070532Z 0706/0806 VRB04KT P6SM SKC

Example: see airport list